Share

Buffalo, SD

Hettinger Municipal (KHEI) Elev 2703 ft | 46.01 °N, 102.66 °W | Change Station

Current weather conditions updated 33 minutes ago

Overcast
Overcast
28 °F
Feels Like 20 °F
N
8
Wind Variable Wind from East
Sunrise 6:05 AM
Sunset 7:43 PM
Moon Waning Gibbous

Today is forecast to be Much Warmer than yesterday.

Pressure 30.30 in
Visibility 10.0 miles
Clouds Overcast 2700 ft
Windchill 20 °F
Dew Point 21 °F
Humidity 75%
Rainfall 0.00 in
Snow Depth Not available.
UV 0 out of 16
Pollen 6.30 out of 12
Air Quality Not available.
Flu Activity Sporadic
METAR KHEI 170553Z AUTO 09007KT 10SM OVC027 M02/M06 A3020 RMK AO2 SLP259 T10221061 11011 21039 53001

More Conditions Fewer Conditions

Pressure 30.30 in
Visibility 10.0 miles
Clouds Overcast 2700 ft
Windchill 20 °F
Dew Point 21 °F
Humidity 75%
Rainfall 0.00 in
Snow Depth Not available.
UV 0 out of 16
Pollen 6.30 out of 12
Air Quality Not available.
Flu Activity Sporadic
METAR KHEI 170553Z AUTO 09007KT 10SM OVC027 M02/M06 A3020 RMK AO2 SLP259 T10221061 11011 21039 53001

More Conditions Fewer Conditions

10-Day Forecast

Almanac

Astronomy

Apr. 17, 2014 Rise Set
Actual Time 6:05 AM MDT 7:43 PM MDT
Civil Twilight 5:34 AM MDT 8:14 PM MDT
Nautical Twilight 4:56 AM MDT 8:52 PM MDT
Astronomical Twilight 4:15 AM MDT 9:33 PM MDT
Moon 10:37 PM MDT 7:34 AM MDT
Length of Visible Light 14h 40m
Length of Day
13h 38m
Tomorrow will be 3m 2s longer.
Waning Gibbous, 96% of the Moon is Illuminated
Today
Waning Gibbous
Apr 22
Last Quarter
Apr 29
New
May 6
First Quarter
May 14
Full

Today's Extremes

State Highs State Lows

Community

  • Sunset over the Bay
    Sunset over the Bay
  • symphony in blue....
    symphony in blue....
  • Dawn Surprise
    Dawn Surprise
  • Yucca delight
    Yucca delight
  • Sunset inside of the Ocean
    Sunset inside of the Ocean

WunderPhotos

Upload Photos

1,701,875 photos uploaded!

WunderBlogs® & News

Nearby

Snow Depth

Station Depth Elevation
North Rapid Creek 24 in 6130 ft
Blind Park 26 in 6890 ft

Coastal Water Temperatures

Place Temperature
No Stations Reporting

Earthquake Activity

City Distance Mag. Time & Date
No recent earthquake activity has been reported nearby.
Minimum magnitude displayed is 2.5.

Nearby Weather Stations

Station Location Temp. Dew Point Humidity Wind Precip. Elev Updated Type
CRN SDSU ANTELOPE RES BUFFALO 13 ESE SD , Reva, SD - - 76% North  at  5 mph 0.00 in / hr 2882 ft 10:00 PM MDT MADIS

Show More Stations Show Fewer Stations

What do you think?

We're not finished. Please let us know what you like, what you don't like, and what you are still missing.